sensor_id;sensor_type;location;lat;lon;timestamp;P1;durP1;ratioP1;P2;durP2;ratioP2
79399;SDS011;68856;45.586;10.264;2024-02-26T00:01:53;6.78;;;6.07;;
79399;SDS011;68856;45.586;10.264;2024-02-26T00:04:19;9.13;;;6.80;;
79399;SDS011;68856;45.586;10.264;2024-02-26T00:06:46;10.43;;;7.38;;
79399;SDS011;68856;45.586;10.264;2024-02-26T00:09:15;8.90;;;7.00;;
79399;SDS011;68856;45.586;10.264;2024-02-26T00:11:41;9.80;;;6.75;;
79399;SDS011;68856;45.586;10.264;2024-02-26T00:14:07;5.38;;;4.88;;
79399;SDS011;68856;45.586;10.264;2024-02-26T00:16:33;6.95;;;4.22;;
79399;SDS011;68856;45.586;10.264;2024-02-26T00:18:59;5.18;;;4.32;;
79399;SDS011;68856;45.586;10.264;2024-02-26T00:21:25;6.85;;;4.25;;
79399;SDS011;68856;45.586;10.264;2024-02-26T00:23:52;5.80;;;4.25;;
79399;SDS011;68856;45.586;10.264;2024-02-26T00:26:19;5.25;;;4.10;;
79399;SDS011;68856;45.586;10.264;2024-02-26T00:28:45;6.95;;;4.88;;
79399;SDS011;68856;45.586;10.264;2024-02-26T00:31:11;9.48;;;5.70;;
79399;SDS011;68856;45.586;10.264;2024-02-26T00:33:37;6.40;;;5.00;;
79399;SDS011;68856;45.586;10.264;2024-02-26T00:36:03;8.98;;;6.10;;
79399;SDS011;68856;45.586;10.264;2024-02-26T00:38:29;8.90;;;5.38;;
79399;SDS011;68856;45.586;10.264;2024-02-26T00:40:55;6.80;;;5.00;;
79399;SDS011;68856;45.586;10.264;2024-02-26T00:43:21;5.60;;;4.53;;
79399;SDS011;68856;45.586;10.264;2024-02-26T00:45:48;4.55;;;4.10;;
79399;SDS011;68856;45.586;10.264;2024-02-26T00:48:14;6.95;;;5.60;;
79399;SDS011;68856;45.586;10.264;2024-02-26T00:50:40;9.18;;;4.97;;
79399;SDS011;68856;45.586;10.264;2024-02-26T00:53:07;5.82;;;4.72;;
79399;SDS011;68856;45.586;10.264;2024-02-26T00:55:33;5.78;;;4.65;;
79399;SDS011;68856;45.586;10.264;2024-02-26T00:57:59;7.40;;;5.88;;
79399;SDS011;68856;45.586;10.264;2024-02-26T01:00:25;7.60;;;5.28;;
79399;SDS011;68856;45.586;10.264;2024-02-26T01:02:51;5.53;;;4.90;;
79399;SDS011;68856;45.586;10.264;2024-02-26T01:05:18;6.63;;;4.63;;
79399;SDS011;68856;45.586;10.264;2024-02-26T01:07:44;5.68;;;4.82;;
79399;SDS011;68856;45.586;10.264;2024-02-26T01:10:10;5.68;;;4.15;;
79399;SDS011;68856;45.586;10.264;2024-02-26T01:12:36;5.95;;;4.00;;
79399;SDS011;68856;45.586;10.264;2024-02-26T01:15:02;4.63;;;4.20;;
79399;SDS011;68856;45.586;10.264;2024-02-26T01:17:29;4.40;;;3.90;;
79399;SDS011;68856;45.586;10.264;2024-02-26T01:19:55;7.63;;;4.50;;
79399;SDS011;68856;45.586;10.264;2024-02-26T01:22:21;6.28;;;4.30;;
79399;SDS011;68856;45.586;10.264;2024-02-26T01:24:47;6.05;;;4.25;;
79399;SDS011;68856;45.586;10.264;2024-02-26T01:27:13;5.60;;;4.63;;
79399;SDS011;68856;45.586;10.264;2024-02-26T01:29:40;6.88;;;4.75;;
79399;SDS011;68856;45.586;10.264;2024-02-26T01:32:07;4.32;;;3.92;;
79399;SDS011;68856;45.586;10.264;2024-02-26T01:34:33;5.63;;;4.55;;
79399;SDS011;68856;45.586;10.264;2024-02-26T01:37:00;5.50;;;4.43;;
79399;SDS011;68856;45.586;10.264;2024-02-26T01:39:26;4.88;;;3.85;;
79399;SDS011;68856;45.586;10.264;2024-02-26T01:41:54;4.25;;;3.75;;
79399;SDS011;68856;45.586;10.264;2024-02-26T01:44:20;5.88;;;5.20;;
79399;SDS011;68856;45.586;10.264;2024-02-26T01:46:47;6.05;;;5.30;;
79399;SDS011;68856;45.586;10.264;2024-02-26T01:49:13;7.03;;;5.53;;
79399;SDS011;68856;45.586;10.264;2024-02-26T01:51:40;9.35;;;5.90;;
79399;SDS011;68856;45.586;10.264;2024-02-26T01:54:07;6.00;;;5.40;;
79399;SDS011;68856;45.586;10.264;2024-02-26T01:56:33;6.97;;;5.13;;
79399;SDS011;68856;45.586;10.264;2024-02-26T01:59:01;5.68;;;5.07;;
79399;SDS011;68856;45.586;10.264;2024-02-26T02:01:31;7.07;;;5.75;;
79399;SDS011;68856;45.586;10.264;2024-02-26T02:03:57;6.30;;;5.35;;
79399;SDS011;68856;45.586;10.264;2024-02-26T02:06:24;10.30;;;6.10;;
79399;SDS011;68856;45.586;10.264;2024-02-26T02:08:50;5.43;;;4.85;;
79399;SDS011;68856;45.586;10.264;2024-02-26T02:11:16;5.03;;;4.57;;
79399;SDS011;68856;45.586;10.264;2024-02-26T02:13:43;7.47;;;4.60;;
79399;SDS011;68856;45.586;10.264;2024-02-26T02:16:09;5.18;;;4.38;;
79399;SDS011;68856;45.586;10.264;2024-02-26T02:18:35;6.22;;;4.32;;
79399;SDS011;68856;45.586;10.264;2024-02-26T02:21:01;7.55;;;4.45;;
79399;SDS011;68856;45.586;10.264;2024-02-26T02:23:27;5.70;;;4.50;;
79399;SDS011;68856;45.586;10.264;2024-02-26T02:25:54;4.65;;;4.18;;
79399;SDS011;68856;45.586;10.264;2024-02-26T02:28:20;5.35;;;4.20;;
79399;SDS011;68856;45.586;10.264;2024-02-26T02:30:46;5.03;;;4.55;;
79399;SDS011;68856;45.586;10.264;2024-02-26T02:33:12;6.03;;;4.88;;
79399;SDS011;68856;45.586;10.264;2024-02-26T02:35:40;4.35;;;3.95;;
79399;SDS011;68856;45.586;10.264;2024-02-26T02:38:06;5.78;;;4.20;;
79399;SDS011;68856;45.586;10.264;2024-02-26T02:40:32;4.55;;;4.15;;
79399;SDS011;68856;45.586;10.264;2024-02-26T02:42:58;5.85;;;4.63;;
79399;SDS011;68856;45.586;10.264;2024-02-26T02:45:26;4.93;;;4.13;;
79399;SDS011;68856;45.586;10.264;2024-02-26T02:47:52;5.63;;;4.10;;
79399;SDS011;68856;45.586;10.264;2024-02-26T02:50:19;5.32;;;4.68;;
79399;SDS011;68856;45.586;10.264;2024-02-26T02:52:45;6.57;;;4.38;;
79399;SDS011;68856;45.586;10.264;2024-02-26T02:55:11;4.75;;;4.03;;
79399;SDS011;68856;45.586;10.264;2024-02-26T02:57:37;4.82;;;4.15;;
79399;SDS011;68856;45.586;10.264;2024-02-26T03:00:08;5.75;;;4.28;;
79399;SDS011;68856;45.586;10.264;2024-02-26T03:02:34;5.00;;;4.50;;
79399;SDS011;68856;45.586;10.264;2024-02-26T03:05:03;5.10;;;4.10;;
79399;SDS011;68856;45.586;10.264;2024-02-26T03:07:29;6.22;;;4.68;;
79399;SDS011;68856;45.586;10.264;2024-02-26T03:09:55;7.32;;;3.97;;
79399;SDS011;68856;45.586;10.264;2024-02-26T03:12:22;6.70;;;4.30;;
79399;SDS011;68856;45.586;10.264;2024-02-26T03:14:48;4.55;;;3.55;;
79399;SDS011;68856;45.586;10.264;2024-02-26T03:17:14;4.32;;;3.92;;
79399;SDS011;68856;45.586;10.264;2024-02-26T03:19:40;3.80;;;3.40;;
79399;SDS011;68856;45.586;10.264;2024-02-26T03:22:06;7.07;;;3.08;;
79399;SDS011;68856;45.586;10.264;2024-02-26T03:24:32;5.03;;;3.42;;
79399;SDS011;68856;45.586;10.264;2024-02-26T03:26:59;3.78;;;3.38;;
79399;SDS011;68856;45.586;10.264;2024-02-26T03:29:25;4.10;;;3.53;;
79399;SDS011;68856;45.586;10.264;2024-02-26T03:31:51;4.60;;;3.53;;
79399;SDS011;68856;45.586;10.264;2024-02-26T03:34:17;6.57;;;4.22;;
79399;SDS011;68856;45.586;10.264;2024-02-26T03:36:44;4.90;;;3.70;;
79399;SDS011;68856;45.586;10.264;2024-02-26T03:39:11;4.55;;;4.00;;
79399;SDS011;68856;45.586;10.264;2024-02-26T03:41:37;5.38;;;4.07;;
79399;SDS011;68856;45.586;10.264;2024-02-26T03:44:03;3.88;;;3.40;;
79399;SDS011;68856;45.586;10.264;2024-02-26T03:46:29;4.82;;;3.65;;
79399;SDS011;68856;45.586;10.264;2024-02-26T03:48:55;3.97;;;3.67;;
79399;SDS011;68856;45.586;10.264;2024-02-26T03:51:21;4.10;;;3.60;;
79399;SDS011;68856;45.586;10.264;2024-02-26T03:53:47;4.32;;;3.92;;
79399;SDS011;68856;45.586;10.264;2024-02-26T03:56:13;3.65;;;3.35;;
79399;SDS011;68856;45.586;10.264;2024-02-26T03:58:39;4.07;;;3.67;;
79399;SDS011;68856;45.586;10.264;2024-02-26T04:01:08;3.88;;;3.47;;
79399;SDS011;68856;45.586;10.264;2024-02-26T04:03:35;4.75;;;4.25;;
79399;SDS011;68856;45.586;10.264;2024-02-26T04:06:01;4.05;;;3.65;;
79399;SDS011;68856;45.586;10.264;2024-02-26T04:08:28;7.57;;;5.03;;
79399;SDS011;68856;45.586;10.264;2024-02-26T04:10:54;7.07;;;4.32;;
79399;SDS011;68856;45.586;10.264;2024-02-26T04:13:20;8.27;;;5.93;;
79399;SDS011;68856;45.586;10.264;2024-02-26T04:15:46;5.82;;;4.75;;
79399;SDS011;68856;45.586;10.264;2024-02-26T04:18:12;4.32;;;3.60;;
79399;SDS011;68856;45.586;10.264;2024-02-26T04:20:39;4.88;;;4.10;;
79399;SDS011;68856;45.586;10.264;2024-02-26T04:23:07;5.57;;;3.92;;
79399;SDS011;68856;45.586;10.264;2024-02-26T04:25:33;4.82;;;3.58;;
79399;SDS011;68856;45.586;10.264;2024-02-26T04:27:59;4.97;;;4.38;;
79399;SDS011;68856;45.586;10.264;2024-02-26T04:30:25;6.35;;;4.45;;
79399;SDS011;68856;45.586;10.264;2024-02-26T04:32:51;7.15;;;4.03;;
79399;SDS011;68856;45.586;10.264;2024-02-26T04:35:17;5.93;;;4.20;;
79399;SDS011;68856;45.586;10.264;2024-02-26T04:37:43;7.13;;;4.22;;
79399;SDS011;68856;45.586;10.264;2024-02-26T04:40:10;5.70;;;4.13;;
79399;SDS011;68856;45.586;10.264;2024-02-26T04:42:36;7.40;;;4.57;;
79399;SDS011;68856;45.586;10.264;2024-02-26T04:45:02;8.02;;;4.18;;
79399;SDS011;68856;45.586;10.264;2024-02-26T04:47:28;4.38;;;3.97;;
79399;SDS011;68856;45.586;10.264;2024-02-26T04:49:55;4.78;;;4.28;;
79399;SDS011;68856;45.586;10.264;2024-02-26T04:52:21;5.15;;;3.90;;
79399;SDS011;68856;45.586;10.264;2024-02-26T04:54:47;4.13;;;3.38;;
79399;SDS011;68856;45.586;10.264;2024-02-26T04:57:13;4.45;;;3.25;;
79399;SDS011;68856;45.586;10.264;2024-02-26T04:59:39;4.18;;;3.33;;
79399;SDS011;68856;45.586;10.264;2024-02-26T05:02:07;3.70;;;3.40;;
79399;SDS011;68856;45.586;10.264;2024-02-26T05:04:33;3.67;;;2.90;;
79399;SDS011;68856;45.586;10.264;2024-02-26T05:06:59;5.30;;;4.00;;
79399;SDS011;68856;45.586;10.264;2024-02-26T05:09:25;4.75;;;4.00;;
79399;SDS011;68856;45.586;10.264;2024-02-26T05:11:51;5.72;;;4.00;;
79399;SDS011;68856;45.586;10.264;2024-02-26T05:14:17;5.93;;;3.90;;
79399;SDS011;68856;45.586;10.264;2024-02-26T05:16:44;6.28;;;3.63;;
79399;SDS011;68856;45.586;10.264;2024-02-26T05:19:10;5.00;;;3.60;;
79399;SDS011;68856;45.586;10.264;2024-02-26T05:21:36;6.63;;;3.70;;
79399;SDS011;68856;45.586;10.264;2024-02-26T05:24:02;4.47;;;3.53;;
79399;SDS011;68856;45.586;10.264;2024-02-26T05:26:28;5.30;;;4.30;;
79399;SDS011;68856;45.586;10.264;2024-02-26T05:28:54;4.03;;;3.63;;
79399;SDS011;68856;45.586;10.264;2024-02-26T05:31:24;3.90;;;3.50;;
79399;SDS011;68856;45.586;10.264;2024-02-26T05:33:50;6.32;;;4.65;;
79399;SDS011;68856;45.586;10.264;2024-02-26T05:36:20;4.47;;;3.67;;
79399;SDS011;68856;45.586;10.264;2024-02-26T05:38:47;4.35;;;3.72;;
79399;SDS011;68856;45.586;10.264;2024-02-26T05:41:17;4.03;;;3.63;;
79399;SDS011;68856;45.586;10.264;2024-02-26T05:43:51;5.65;;;4.30;;
79399;SDS011;68856;45.586;10.264;2024-02-26T05:46:17;6.80;;;3.47;;
79399;SDS011;68856;45.586;10.264;2024-02-26T05:48:50;5.65;;;3.80;;
79399;SDS011;68856;45.586;10.264;2024-02-26T05:51:17;5.80;;;3.90;;
79399;SDS011;68856;45.586;10.264;2024-02-26T05:53:43;3.92;;;3.50;;
79399;SDS011;68856;45.586;10.264;2024-02-26T05:56:09;4.93;;;3.88;;
79399;SDS011;68856;45.586;10.264;2024-02-26T05:58:35;4.10;;;3.70;;
79399;SDS011;68856;45.586;10.264;2024-02-26T06:01:01;5.22;;;3.95;;
79399;SDS011;68856;45.586;10.264;2024-02-26T06:03:27;5.20;;;4.00;;
79399;SDS011;68856;45.586;10.264;2024-02-26T06:05:53;7.78;;;4.60;;
79399;SDS011;68856;45.586;10.264;2024-02-26T06:08:20;6.05;;;3.95;;
79399;SDS011;68856;45.586;10.264;2024-02-26T06:10:46;4.97;;;4.47;;
79399;SDS011;68856;45.586;10.264;2024-02-26T06:13:12;4.10;;;3.70;;
79399;SDS011;68856;45.586;10.264;2024-02-26T06:15:38;4.95;;;4.15;;
79399;SDS011;68856;45.586;10.264;2024-02-26T06:18:04;5.25;;;4.30;;
79399;SDS011;68856;45.586;10.264;2024-02-26T06:20:30;4.57;;;4.00;;
79399;SDS011;68856;45.586;10.264;2024-02-26T06:22:56;5.90;;;4.30;;
79399;SDS011;68856;45.586;10.264;2024-02-26T06:25:22;4.20;;;3.83;;
79399;SDS011;68856;45.586;10.264;2024-02-26T06:27:49;6.72;;;4.40;;
79399;SDS011;68856;45.586;10.264;2024-02-26T06:30:15;5.00;;;4.22;;
79399;SDS011;68856;45.586;10.264;2024-02-26T06:32:41;5.10;;;4.60;;
79399;SDS011;68856;45.586;10.264;2024-02-26T06:35:07;5.85;;;4.28;;
79399;SDS011;68856;45.586;10.264;2024-02-26T06:37:35;5.43;;;4.90;;
79399;SDS011;68856;45.586;10.264;2024-02-26T06:40:01;4.25;;;3.85;;
79399;SDS011;68856;45.586;10.264;2024-02-26T06:42:31;4.77;;;4.37;;
79399;SDS011;68856;45.586;10.264;2024-02-26T06:44:58;4.63;;;4.07;;
79399;SDS011;68856;45.586;10.264;2024-02-26T06:47:24;5.13;;;4.57;;
79399;SDS011;68856;45.586;10.264;2024-02-26T06:49:51;3.78;;;3.40;;
79399;SDS011;68856;45.586;10.264;2024-02-26T06:52:17;6.72;;;6.07;;
79399;SDS011;68856;45.586;10.264;2024-02-26T06:54:43;5.05;;;4.55;;
79399;SDS011;68856;45.586;10.264;2024-02-26T06:57:09;5.05;;;4.28;;
79399;SDS011;68856;45.586;10.264;2024-02-26T06:59:36;7.47;;;6.65;;
79399;SDS011;68856;45.586;10.264;2024-02-26T07:02:02;7.40;;;5.80;;
79399;SDS011;68856;45.586;10.264;2024-02-26T07:04:28;6.03;;;4.75;;
79399;SDS011;68856;45.586;10.264;2024-02-26T07:06:56;7.53;;;6.25;;
79399;SDS011;68856;45.586;10.264;2024-02-26T07:09:22;8.02;;;4.97;;
79399;SDS011;68856;45.586;10.264;2024-02-26T07:11:48;8.93;;;8.02;;
79399;SDS011;68856;45.586;10.264;2024-02-26T07:14:14;19.25;;;15.70;;
79399;SDS011;68856;45.586;10.264;2024-02-26T07:16:40;7.25;;;5.15;;
79399;SDS011;68856;45.586;10.264;2024-02-26T07:19:06;6.72;;;5.03;;
79399;SDS011;68856;45.586;10.264;2024-02-26T07:21:32;5.22;;;3.67;;
79399;SDS011;68856;45.586;10.264;2024-02-26T07:23:59;3.00;;;2.72;;
79399;SDS011;68856;45.586;10.264;2024-02-26T07:26:25;4.70;;;2.53;;
79399;SDS011;68856;45.586;10.264;2024-02-26T07:28:51;3.72;;;2.83;;
79399;SDS011;68856;45.586;10.264;2024-02-26T07:31:17;3.75;;;3.15;;
79399;SDS011;68856;45.586;10.264;2024-02-26T07:33:43;2.72;;;2.10;;
79399;SDS011;68856;45.586;10.264;2024-02-26T07:36:10;2.63;;;2.40;;
79399;SDS011;68856;45.586;10.264;2024-02-26T07:38:36;3.42;;;2.20;;
79399;SDS011;68856;45.586;10.264;2024-02-26T07:41:02;2.50;;;2.30;;
79399;SDS011;68856;45.586;10.264;2024-02-26T07:43:28;3.25;;;2.22;;
79399;SDS011;68856;45.586;10.264;2024-02-26T07:45:54;2.28;;;1.95;;
79399;SDS011;68856;45.586;10.264;2024-02-26T07:48:21;3.17;;;2.05;;
79399;SDS011;68856;45.586;10.264;2024-02-26T07:50:47;2.58;;;2.00;;
79399;SDS011;68856;45.586;10.264;2024-02-26T07:53:13;3.03;;;2.10;;
79399;SDS011;68856;45.586;10.264;2024-02-26T07:55:39;5.20;;;2.38;;
79399;SDS011;68856;45.586;10.264;2024-02-26T07:58:06;2.05;;;1.85;;
79399;SDS011;68856;45.586;10.264;2024-02-26T08:00:32;1.77;;;1.67;;
79399;SDS011;68856;45.586;10.264;2024-02-26T08:02:58;1.80;;;1.70;;
79399;SDS011;68856;45.586;10.264;2024-02-26T08:05:24;2.85;;;1.90;;
79399;SDS011;68856;45.586;10.264;2024-02-26T08:07:50;2.10;;;1.90;;
79399;SDS011;68856;45.586;10.264;2024-02-26T08:10:16;2.70;;;2.17;;
79399;SDS011;68856;45.586;10.264;2024-02-26T08:12:42;2.15;;;1.95;;
79399;SDS011;68856;45.586;10.264;2024-02-26T08:15:10;4.57;;;2.00;;
79399;SDS011;68856;45.586;10.264;2024-02-26T08:17:36;2.75;;;1.73;;
79399;SDS011;68856;45.586;10.264;2024-02-26T08:20:03;4.22;;;2.25;;
79399;SDS011;68856;45.586;10.264;2024-02-26T08:22:29;2.53;;;2.20;;
79399;SDS011;68856;45.586;10.264;2024-02-26T08:24:55;4.22;;;3.00;;
79399;SDS011;68856;45.586;10.264;2024-02-26T08:27:21;2.95;;;2.63;;
79399;SDS011;68856;45.586;10.264;2024-02-26T08:29:47;4.28;;;2.38;;
79399;SDS011;68856;45.586;10.264;2024-02-26T08:32:13;3.60;;;2.47;;
79399;SDS011;68856;45.586;10.264;2024-02-26T08:34:39;4.57;;;2.80;;
79399;SDS011;68856;45.586;10.264;2024-02-26T08:37:05;3.45;;;2.60;;
79399;SDS011;68856;45.586;10.264;2024-02-26T08:39:32;4.13;;;2.88;;
79399;SDS011;68856;45.586;10.264;2024-02-26T08:41:58;3.28;;;2.60;;
79399;SDS011;68856;45.586;10.264;2024-02-26T08:44:24;2.88;;;2.58;;
79399;SDS011;68856;45.586;10.264;2024-02-26T08:46:51;3.58;;;2.58;;
79399;SDS011;68856;45.586;10.264;2024-02-26T08:49:17;3.10;;;2.55;;
79399;SDS011;68856;45.586;10.264;2024-02-26T08:51:43;2.95;;;2.58;;
79399;SDS011;68856;45.586;10.264;2024-02-26T08:54:10;3.60;;;3.30;;
79399;SDS011;68856;45.586;10.264;2024-02-26T08:56:36;2.65;;;2.45;;
79399;SDS011;68856;45.586;10.264;2024-02-26T08:59:02;2.58;;;2.30;;
79399;SDS011;68856;45.586;10.264;2024-02-26T09:01:31;2.10;;;1.92;;
79399;SDS011;68856;45.586;10.264;2024-02-26T09:03:58;2.30;;;2.10;;
79399;SDS011;68856;45.586;10.264;2024-02-26T09:06:24;2.25;;;2.05;;
79399;SDS011;68856;45.586;10.264;2024-02-26T09:08:50;2.50;;;1.73;;
79399;SDS011;68856;45.586;10.264;2024-02-26T09:11:16;3.17;;;2.00;;
79399;SDS011;68856;45.586;10.264;2024-02-26T09:13:42;2.35;;;1.98;;
79399;SDS011;68856;45.586;10.264;2024-02-26T09:16:08;3.10;;;2.35;;
79399;SDS011;68856;45.586;10.264;2024-02-26T09:18:34;2.60;;;2.40;;
79399;SDS011;68856;45.586;10.264;2024-02-26T09:21:03;2.20;;;2.00;;
79399;SDS011;68856;45.586;10.264;2024-02-26T09:23:30;3.22;;;2.13;;
79399;SDS011;68856;45.586;10.264;2024-02-26T09:25:57;3.17;;;2.10;;
79399;SDS011;68856;45.586;10.264;2024-02-26T09:28:23;2.95;;;1.90;;
79399;SDS011;68856;45.586;10.264;2024-02-26T09:30:49;2.10;;;1.67;;
79399;SDS011;68856;45.586;10.264;2024-02-26T09:33:16;2.20;;;1.80;;
79399;SDS011;68856;45.586;10.264;2024-02-26T09:35:42;3.47;;;1.80;;
79399;SDS011;68856;45.586;10.264;2024-02-26T09:38:08;2.75;;;1.83;;
79399;SDS011;68856;45.586;10.264;2024-02-26T09:40:34;2.35;;;1.75;;
79399;SDS011;68856;45.586;10.264;2024-02-26T09:43:00;4.25;;;2.25;;
79399;SDS011;68856;45.586;10.264;2024-02-26T09:45:27;4.07;;;2.10;;
79399;SDS011;68856;45.586;10.264;2024-02-26T09:47:55;2.22;;;1.88;;
79399;SDS011;68856;45.586;10.264;2024-02-26T09:50:21;3.05;;;2.13;;
79399;SDS011;68856;45.586;10.264;2024-02-26T09:52:48;2.03;;;1.80;;
79399;SDS011;68856;45.586;10.264;2024-02-26T09:55:14;4.57;;;2.00;;
79399;SDS011;68856;45.586;10.264;2024-02-26T09:57:42;2.28;;;1.90;;
79399;SDS011;68856;45.586;10.264;2024-02-26T10:00:10;2.15;;;1.88;;
79399;SDS011;68856;45.586;10.264;2024-02-26T10:02:40;3.38;;;2.10;;
79399;SDS011;68856;45.586;10.264;2024-02-26T10:05:07;1.90;;;1.77;;
79399;SDS011;68856;45.586;10.264;2024-02-26T10:07:33;2.58;;;2.38;;
79399;SDS011;68856;45.586;10.264;2024-02-26T10:10:00;1.98;;;1.83;;
79399;SDS011;68856;45.586;10.264;2024-02-26T10:12:26;4.47;;;2.00;;
79399;SDS011;68856;45.586;10.264;2024-02-26T10:14:53;3.17;;;2.40;;
79399;SDS011;68856;45.586;10.264;2024-02-26T10:17:19;3.35;;;1.92;;
79399;SDS011;68856;45.586;10.264;2024-02-26T10:19:45;3.85;;;2.25;;
79399;SDS011;68856;45.586;10.264;2024-02-26T10:22:11;2.28;;;2.08;;
79399;SDS011;68856;45.586;10.264;2024-02-26T10:24:38;5.32;;;2.63;;
79399;SDS011;68856;45.586;10.264;2024-02-26T10:27:04;3.13;;;2.20;;
79399;SDS011;68856;45.586;10.264;2024-02-26T10:29:30;3.63;;;1.88;;
79399;SDS011;68856;45.586;10.264;2024-02-26T10:31:57;2.05;;;1.65;;
79399;SDS011;68856;45.586;10.264;2024-02-26T10:34:23;2.50;;;2.30;;
79399;SDS011;68856;45.586;10.264;2024-02-26T10:36:49;2.00;;;1.80;;
79399;SDS011;68856;45.586;10.264;2024-02-26T10:39:15;3.90;;;2.83;;
79399;SDS011;68856;45.586;10.264;2024-02-26T10:41:42;3.42;;;2.42;;
79399;SDS011;68856;45.586;10.264;2024-02-26T10:44:10;5.75;;;4.00;;
79399;SDS011;68856;45.586;10.264;2024-02-26T10:46:37;2.90;;;2.28;;
79399;SDS011;68856;45.586;10.264;2024-02-26T10:49:03;3.20;;;2.65;;
79399;SDS011;68856;45.586;10.264;2024-02-26T10:51:31;2.78;;;2.42;;
79399;SDS011;68856;45.586;10.264;2024-02-26T10:53:59;3.10;;;2.70;;
79399;SDS011;68856;45.586;10.264;2024-02-26T10:56:29;3.15;;;2.20;;
79399;SDS011;68856;45.586;10.264;2024-02-26T10:58:59;3.28;;;2.17;;
79399;SDS011;68856;45.586;10.264;2024-02-26T11:01:26;2.13;;;1.92;;
79399;SDS011;68856;45.586;10.264;2024-02-26T11:03:54;2.90;;;2.30;;
79399;SDS011;68856;45.586;10.264;2024-02-26T11:06:23;2.40;;;2.20;;
79399;SDS011;68856;45.586;10.264;2024-02-26T11:08:50;4.03;;;2.60;;
79399;SDS011;68856;45.586;10.264;2024-02-26T11:11:20;2.67;;;2.30;;
79399;SDS011;68856;45.586;10.264;2024-02-26T11:13:47;3.03;;;2.72;;
79399;SDS011;68856;45.586;10.264;2024-02-26T11:16:22;3.30;;;2.67;;
79399;SDS011;68856;45.586;10.264;2024-02-26T11:18:48;3.72;;;2.80;;
79399;SDS011;68856;45.586;10.264;2024-02-26T11:21:18;2.92;;;2.40;;
79399;SDS011;68856;45.586;10.264;2024-02-26T11:23:52;2.58;;;2.38;;
79399;SDS011;68856;45.586;10.264;2024-02-26T11:26:18;2.47;;;2.00;;
79399;SDS011;68856;45.586;10.264;2024-02-26T11:28:45;2.92;;;1.60;;
79399;SDS011;68856;45.586;10.264;2024-02-26T11:31:13;2.45;;;2.25;;
79399;SDS011;68856;45.586;10.264;2024-02-26T11:33:39;6.60;;;2.40;;
79399;SDS011;68856;45.586;10.264;2024-02-26T11:36:08;2.47;;;2.28;;
79399;SDS011;68856;45.586;10.264;2024-02-26T11:38:35;3.33;;;2.40;;
79399;SDS011;68856;45.586;10.264;2024-02-26T11:41:01;2.70;;;2.45;;
79399;SDS011;68856;45.586;10.264;2024-02-26T11:46:28;2.90;;;2.50;;
79399;SDS011;68856;45.586;10.264;2024-02-26T11:48:58;2.75;;;2.55;;
79399;SDS011;68856;45.586;10.264;2024-02-26T11:51:26;2.83;;;2.58;;
79399;SDS011;68856;45.586;10.264;2024-02-26T11:53:52;4.60;;;2.50;;
79399;SDS011;68856;45.586;10.264;2024-02-26T11:58:45;2.72;;;2.50;;
79399;SDS011;68856;45.586;10.264;2024-02-26T12:04:22;2.85;;;2.10;;
79399;SDS011;68856;45.586;10.264;2024-02-26T12:07:00;3.33;;;2.65;;
79399;SDS011;68856;45.586;10.264;2024-02-26T12:09:33;3.20;;;2.60;;
79399;SDS011;68856;45.586;10.264;2024-02-26T12:12:01;3.53;;;2.50;;
79399;SDS011;68856;45.586;10.264;2024-02-26T12:14:27;2.05;;;1.85;;
79399;SDS011;68856;45.586;10.264;2024-02-26T12:16:54;3.17;;;2.88;;
79399;SDS011;68856;45.586;10.264;2024-02-26T12:19:21;2.50;;;2.30;;
79399;SDS011;68856;45.586;10.264;2024-02-26T12:21:51;2.20;;;2.00;;
79399;SDS011;68856;45.586;10.264;2024-02-26T12:24:20;2.90;;;1.83;;
79399;SDS011;68856;45.586;10.264;2024-02-26T12:26:47;2.88;;;2.58;;
79399;SDS011;68856;45.586;10.264;2024-02-26T12:29:13;2.47;;;2.15;;
79399;SDS011;68856;45.586;10.264;2024-02-26T12:31:40;3.53;;;2.40;;
79399;SDS011;68856;45.586;10.264;2024-02-26T12:34:06;3.80;;;2.17;;
79399;SDS011;68856;45.586;10.264;2024-02-26T12:36:34;1.55;;;1.45;;
79399;SDS011;68856;45.586;10.264;2024-02-26T12:39:01;2.60;;;2.15;;
79399;SDS011;68856;45.586;10.264;2024-02-26T12:41:28;2.60;;;1.92;;
79399;SDS011;68856;45.586;10.264;2024-02-26T12:43:57;1.70;;;1.60;;
79399;SDS011;68856;45.586;10.264;2024-02-26T12:46:23;2.45;;;2.00;;
79399;SDS011;68856;45.586;10.264;2024-02-26T12:48:49;2.38;;;2.17;;
79399;SDS011;68856;45.586;10.264;2024-02-26T12:51:16;2.55;;;1.77;;
79399;SDS011;68856;45.586;10.264;2024-02-26T12:53:43;2.60;;;1.33;;
79399;SDS011;68856;45.586;10.264;2024-02-26T12:56:10;1.77;;;1.67;;
79399;SDS011;68856;45.586;10.264;2024-02-26T12:58:40;1.33;;;1.23;;
79399;SDS011;68856;45.586;10.264;2024-02-26T13:01:06;2.50;;;1.85;;
79399;SDS011;68856;45.586;10.264;2024-02-26T13:03:33;3.53;;;3.22;;
79399;SDS011;68856;45.586;10.264;2024-02-26T13:06:00;2.00;;;1.90;;
79399;SDS011;68856;45.586;10.264;2024-02-26T13:08:27;1.45;;;1.35;;
79399;SDS011;68856;45.586;10.264;2024-02-26T13:10:53;1.60;;;1.10;;
79399;SDS011;68856;45.586;10.264;2024-02-26T13:13:19;1.35;;;1.10;;
79399;SDS011;68856;45.586;10.264;2024-02-26T13:15:45;1.27;;;1.15;;
79399;SDS011;68856;45.586;10.264;2024-02-26T13:18:12;2.35;;;1.85;;
79399;SDS011;68856;45.586;10.264;2024-02-26T13:20:38;1.65;;;1.50;;
79399;SDS011;68856;45.586;10.264;2024-02-26T13:23:10;1.50;;;1.40;;
79399;SDS011;68856;45.586;10.264;2024-02-26T13:25:36;2.22;;;1.50;;
79399;SDS011;68856;45.586;10.264;2024-02-26T13:28:14;2.58;;;2.20;;
79399;SDS011;68856;45.586;10.264;2024-02-26T13:30:51;1.55;;;1.00;;
79399;SDS011;68856;45.586;10.264;2024-02-26T13:33:18;1.52;;;1.13;;
79399;SDS011;68856;45.586;10.264;2024-02-26T13:35:44;1.23;;;1.13;;
79399;SDS011;68856;45.586;10.264;2024-02-26T13:38:11;0.60;;;0.60;;
79399;SDS011;68856;45.586;10.264;2024-02-26T13:40:37;4.18;;;3.00;;
79399;SDS011;68856;45.586;10.264;2024-02-26T13:43:04;1.52;;;1.27;;
79399;SDS011;68856;45.586;10.264;2024-02-26T13:45:30;1.67;;;1.25;;
79399;SDS011;68856;45.586;10.264;2024-02-26T13:48:01;0.73;;;0.40;;
79399;SDS011;68856;45.586;10.264;2024-02-26T13:50:28;0.90;;;0.90;;
79399;SDS011;68856;45.586;10.264;2024-02-26T13:52:54;1.05;;;0.93;;
79399;SDS011;68856;45.586;10.264;2024-02-26T13:55:21;1.17;;;0.70;;
79399;SDS011;68856;45.586;10.264;2024-02-26T13:57:51;0.50;;;0.50;;
79399;SDS011;68856;45.586;10.264;2024-02-26T14:00:18;1.50;;;0.90;;
79399;SDS011;68856;45.586;10.264;2024-02-26T14:02:45;0.80;;;0.80;;
79399;SDS011;68856;45.586;10.264;2024-02-26T14:05:11;0.68;;;0.68;;
79399;SDS011;68856;45.586;10.264;2024-02-26T14:07:37;3.42;;;1.40;;
79399;SDS011;68856;45.586;10.264;2024-02-26T14:10:04;0.70;;;0.70;;
79399;SDS011;68856;45.586;10.264;2024-02-26T14:12:30;1.40;;;1.30;;
79399;SDS011;68856;45.586;10.264;2024-02-26T14:14:56;0.73;;;0.70;;
79399;SDS011;68856;45.586;10.264;2024-02-26T14:17:25;1.05;;;0.80;;
79399;SDS011;68856;45.586;10.264;2024-02-26T14:19:51;1.13;;;0.95;;
79399;SDS011;68856;45.586;10.264;2024-02-26T14:22:17;1.48;;;1.25;;
79399;SDS011;68856;45.586;10.264;2024-02-26T14:24:44;0.90;;;0.60;;
79399;SDS011;68856;45.586;10.264;2024-02-26T14:27:11;0.52;;;0.52;;
79399;SDS011;68856;45.586;10.264;2024-02-26T14:29:40;0.80;;;0.80;;
79399;SDS011;68856;45.586;10.264;2024-02-26T14:32:08;0.88;;;0.63;;
79399;SDS011;68856;45.586;10.264;2024-02-26T14:34:34;0.75;;;0.75;;
79399;SDS011;68856;45.586;10.264;2024-02-26T14:37:00;0.90;;;0.90;;
79399;SDS011;68856;45.586;10.264;2024-02-26T14:39:26;0.65;;;0.65;;